Terminal Aerodrome Forecast
Issued by NWS

Home | Current Version | Previous Version | Text Only | Print | Product List | Glossary On
Versions: 1 2 3 4 5 6 7 8 9 10 11 12 13 14 15 16 17 18 19
894
FTUS43 KUNR 262337
TAFGCC
TAF
KGCC 262337Z 2700/2724 02006KT P6SM SKC
     FM270300 15007KT P6SM SCT100
     FM270700 17005KT P6SM SCT010 BKN100
      TEMPO 2707/2711 5SM BR BKN010
     FM271100 15005KT 4SM BR BKN010
     FM271500 13010KT P6SM SCT025 BKN050
      TEMPO 2721/2724 P6SM -RA BKN025=

USA.gov is the U.S. government's official web portal to all federal, state and local government web resources and services.